createdAt,value
2023-03-22T00:02:20.068Z,4.40
2023-03-22T00:04:47.253Z,4.43
2023-03-22T00:07:14.668Z,4.47
2023-03-22T00:09:44.277Z,4.49
2023-03-22T00:12:12.093Z,4.52
2023-03-22T00:14:39.390Z,4.53
2023-03-22T00:17:06.870Z,4.55
2023-03-22T00:19:37.483Z,4.56
2023-03-22T00:22:06.424Z,4.52
2023-03-22T00:24:33.885Z,4.47
2023-03-22T00:27:01.608Z,4.43
2023-03-22T00:29:29.076Z,4.43
2023-03-22T00:31:56.876Z,4.46
2023-03-22T00:34:24.923Z,4.50
2023-03-22T00:36:56.320Z,4.52
2023-03-22T00:39:23.759Z,4.54
2023-03-22T00:41:53.750Z,4.56
2023-03-22T00:44:20.888Z,4.58
2023-03-22T00:46:57.447Z,4.58
2023-03-22T00:49:25.716Z,4.57
2023-03-22T00:51:53.161Z,4.55
2023-03-22T00:54:20.729Z,4.55
2023-03-22T00:56:51.044Z,4.56
2023-03-22T00:59:18.987Z,4.55
2023-03-22T01:01:46.521Z,4.55
2023-03-22T01:04:18.304Z,4.54
2023-03-22T01:06:47.180Z,4.53
2023-03-22T01:09:15.264Z,4.49
2023-03-22T01:11:42.811Z,4.47
2023-03-22T01:14:10.603Z,4.43
2023-03-22T01:16:38.081Z,4.37
2023-03-22T01:19:27.568Z,4.32
2023-03-22T01:21:57.884Z,4.29
2023-03-22T01:24:25.829Z,4.27
2023-03-22T01:26:53.148Z,4.25
2023-03-22T01:29:20.706Z,4.24
2023-03-22T01:31:48.062Z,4.22
2023-03-22T01:34:18.286Z,4.17
2023-03-22T01:36:50.526Z,4.13
2023-03-22T01:39:20.719Z,4.10
2023-03-22T01:41:53.646Z,4.05
2023-03-22T01:44:22.954Z,4.03
2023-03-22T01:46:52.921Z,4.01
2023-03-22T01:49:27.815Z,3.95
2023-03-22T01:52:02.184Z,3.90
2023-03-22T01:54:55.946Z,3.86
2023-03-22T01:57:39.588Z,3.82
2023-03-22T02:00:13.928Z,3.78
2023-03-22T02:02:43.534Z,3.74
2023-03-22T02:05:31.485Z,3.71
2023-03-22T02:08:01.736Z,3.70
2023-03-22T02:10:32.599Z,3.69
2023-03-22T02:13:24.247Z,3.68
2023-03-22T02:16:17.677Z,3.64
2023-03-22T02:19:23.910Z,3.61
2023-03-22T02:22:39.460Z,3.60
2023-03-22T02:25:34.583Z,3.57
2023-03-22T02:28:26.580Z,3.55
2023-03-22T02:31:18.113Z,3.52
2023-03-22T02:34:27.552Z,3.49
2023-03-22T02:37:20.986Z,3.44
2023-03-22T02:39:54.589Z,3.41
2023-03-22T02:42:44.563Z,3.39
2023-03-22T02:45:39.643Z,3.36
2023-03-22T02:48:16.584Z,3.33
2023-03-22T02:50:54.741Z,3.31
2023-03-22T02:53:47.636Z,3.28
2023-03-22T02:56:20.736Z,3.24
2023-03-22T02:59:11.601Z,3.20
2023-03-22T03:01:43.715Z,3.17
2023-03-22T03:04:17.123Z,3.14
2023-03-22T03:06:47.843Z,3.10
2023-03-22T03:09:18.288Z,3.08
2023-03-22T03:11:45.708Z,3.05
2023-03-22T03:14:25.555Z,3.05
2023-03-22T03:17:12.410Z,3.04
2023-03-22T03:19:53.664Z,3.04
2023-03-22T03:22:38.187Z,3.06
2023-03-22T03:25:24.276Z,3.10
2023-03-22T03:28:04.894Z,3.11
2023-03-22T03:30:39.431Z,3.13
2023-03-22T03:33:10.965Z,3.17
2023-03-22T03:36:03.603Z,3.19
2023-03-22T03:38:36.628Z,3.20
2023-03-22T03:41:06.621Z,3.20
2023-03-22T03:43:35.718Z,3.20
2023-03-22T03:46:03.870Z,3.18
2023-03-22T03:48:33.238Z,3.18
2023-03-22T03:51:03.148Z,3.17
2023-03-22T03:53:40.380Z,3.12
2023-03-22T03:56:09.604Z,3.11
2023-03-22T03:58:40.955Z,3.12
2023-03-22T04:01:11.883Z,3.15
2023-03-22T04:03:58.130Z,3.14
2023-03-22T04:06:59.594Z,3.14
2023-03-22T04:09:30.114Z,3.13
2023-03-22T04:12:01.512Z,3.12
2023-03-22T04:14:29.531Z,3.10
2023-03-22T04:16:58.661Z,3.07
2023-03-22T04:19:26.955Z,3.03
2023-03-22T04:21:54.617Z,2.98
2023-03-22T04:24:31.269Z,2.93
2023-03-22T04:26:58.621Z,2.88
2023-03-22T04:29:36.598Z,2.82
2023-03-22T04:32:26.473Z,2.77
2023-03-22T04:34:55.722Z,2.73
2023-03-22T04:37:44.540Z,2.69
2023-03-22T04:40:20.648Z,2.67
2023-03-22T04:42:57.717Z,2.68
2023-03-22T04:45:48.998Z,2.70
2023-03-22T04:48:22.422Z,2.74
2023-03-22T04:50:53.645Z,2.77
2023-03-22T04:53:27.359Z,2.81
2023-03-22T04:55:58.026Z,2.83
2023-03-22T04:58:46.204Z,2.87
2023-03-22T05:01:15.555Z,2.91
2023-03-22T05:03:48.469Z,2.96
2023-03-22T05:06:18.008Z,3.04
2023-03-22T05:09:04.280Z,3.17
2023-03-22T05:11:34.061Z,3.32
2023-03-22T05:14:30.912Z,3.62
2023-03-22T05:16:58.637Z,3.95
2023-03-22T05:19:26.557Z,4.35
2023-03-22T05:22:02.294Z,4.87
2023-03-22T05:24:47.540Z,5.83
2023-03-22T05:27:31.772Z,6.81
2023-03-22T05:30:19.525Z,8.13
2023-03-22T05:32:51.468Z,9.17
2023-03-22T05:35:19.131Z,10.07
2023-03-22T05:37:51.773Z,11.28
2023-03-22T05:40:22.190Z,12.54
2023-03-22T05:42:49.925Z,13.68
2023-03-22T05:45:21.462Z,14.57
2023-03-22T05:47:55.704Z,15.41
2023-03-22T05:50:24.589Z,16.05
2023-03-22T05:52:52.573Z,16.57
2023-03-22T05:55:32.539Z,16.99
2023-03-22T05:58:03.305Z,17.10
2023-03-22T06:00:32.260Z,16.63
2023-03-22T06:03:17.088Z,16.01
2023-03-22T06:05:50.926Z,15.83
2023-03-22T06:08:18.656Z,16.15
2023-03-22T06:10:46.062Z,16.41
2023-03-22T06:13:13.293Z,16.58
2023-03-22T06:15:40.553Z,16.82
2023-03-22T06:18:10.532Z,16.88
2023-03-22T06:20:43.504Z,16.94
2023-03-22T06:23:15.918Z,16.85
2023-03-22T06:25:44.387Z,16.98
2023-03-22T06:28:11.942Z,17.12
2023-03-22T06:30:41.551Z,17.18
2023-03-22T06:33:27.332Z,16.28
2023-03-22T06:36:13.321Z,14.51
2023-03-22T06:39:06.690Z,12.84
2023-03-22T06:41:33.932Z,11.80
2023-03-22T06:44:01.278Z,11.00
2023-03-22T06:46:47.037Z,10.37
2023-03-22T06:49:22.906Z,10.09
2023-03-22T06:51:53.378Z,9.76
2023-03-22T06:54:21.504Z,9.53
2023-03-22T06:56:48.944Z,9.69
2023-03-22T06:59:16.860Z,9.94
2023-03-22T07:01:44.138Z,9.77
2023-03-22T07:04:12.094Z,9.45
2023-03-22T07:06:39.706Z,8.99
2023-03-22T07:09:07.365Z,8.64
2023-03-22T07:11:36.048Z,8.40
2023-03-22T07:14:03.977Z,8.21
2023-03-22T07:16:46.462Z,8.05
2023-03-22T07:19:13.918Z,8.01
2023-03-22T07:21:41.170Z,8.13
2023-03-22T07:24:13.686Z,8.44
2023-03-22T07:26:52.064Z,8.60
2023-03-22T07:29:22.575Z,8.63
2023-03-22T07:31:50.103Z,8.67
2023-03-22T07:34:23.903Z,8.79
2023-03-22T07:37:05.925Z,9.23
2023-03-22T07:39:33.509Z,10.15
2023-03-22T07:42:00.841Z,11.42
2023-03-22T07:44:50.011Z,12.06
2023-03-22T07:47:30.514Z,12.76
2023-03-22T07:50:13.457Z,13.98
2023-03-22T07:52:42.797Z,14.03
2023-03-22T07:55:12.160Z,13.72
2023-03-22T07:57:41.337Z,13.38
2023-03-22T08:00:12.231Z,13.11
2023-03-22T08:02:54.523Z,13.40
2023-03-22T08:05:43.170Z,14.35
2023-03-22T08:08:13.763Z,14.97
2023-03-22T08:10:41.658Z,15.15
2023-03-22T08:13:10.685Z,15.35
2023-03-22T08:15:39.077Z,15.47
2023-03-22T08:18:08.743Z,15.10
2023-03-22T08:20:40.072Z,14.67
2023-03-22T08:23:15.911Z,14.30
2023-03-22T08:26:03.541Z,13.90
2023-03-22T08:28:30.994Z,13.51
2023-03-22T08:30:59.746Z,13.12
2023-03-22T08:33:28.276Z,12.68
2023-03-22T08:36:05.010Z,12.24
2023-03-22T08:38:33.424Z,11.77
2023-03-22T08:41:00.682Z,11.43
2023-03-22T08:43:28.314Z,11.21
2023-03-22T08:45:56.669Z,11.12
2023-03-22T08:48:25.124Z,11.11
2023-03-22T08:51:06.891Z,11.10
2023-03-22T08:54:13.127Z,11.04
2023-03-22T08:57:10.514Z,10.94
2023-03-22T09:00:06.687Z,10.80
2023-03-22T09:02:43.985Z,10.69
2023-03-22T09:05:14.072Z,10.65
2023-03-22T09:07:41.873Z,10.62
2023-03-22T09:10:25.549Z,10.57
2023-03-22T09:12:52.808Z,10.50
2023-03-22T09:15:20.449Z,10.44
2023-03-22T09:17:55.477Z,10.36
2023-03-22T09:20:25.536Z,10.29
2023-03-22T09:22:52.780Z,10.27
2023-03-22T09:25:21.394Z,10.26
2023-03-22T09:27:49.398Z,10.23
2023-03-22T09:30:17.254Z,10.19
2023-03-22T09:32:45.016Z,10.14
2023-03-22T09:35:13.999Z,10.14
2023-03-22T09:37:53.587Z,10.17
2023-03-22T09:40:21.840Z,10.20
2023-03-22T09:42:52.519Z,10.23
2023-03-22T09:45:25.070Z,10.26
2023-03-22T09:47:56.776Z,10.32
2023-03-22T09:50:26.612Z,10.40
2023-03-22T09:52:54.735Z,10.47
2023-03-22T09:55:39.108Z,10.55
2023-03-22T09:58:13.202Z,10.63
2023-03-22T10:00:47.000Z,10.73
2023-03-22T10:03:26.043Z,10.79
2023-03-22T10:05:59.114Z,10.78
2023-03-22T10:08:43.012Z,10.77
2023-03-22T10:11:22.589Z,10.74
2023-03-22T10:13:57.996Z,10.71
2023-03-22T10:16:31.467Z,10.64
2023-03-22T10:19:06.681Z,10.59
2023-03-22T10:21:34.752Z,10.55
2023-03-22T10:24:08.863Z,10.51
2023-03-22T10:26:52.992Z,10.47
2023-03-22T10:29:39.901Z,10.47
2023-03-22T10:32:35.573Z,10.54
2023-03-22T10:35:04.468Z,10.60
2023-03-22T10:37:37.889Z,10.61
2023-03-22T10:40:08.512Z,10.61
2023-03-22T10:43:01.323Z,10.58
2023-03-22T10:45:34.992Z,10.61
2023-03-22T10:48:22.950Z,10.66
2023-03-22T10:51:01.801Z,10.74
2023-03-22T10:53:38.722Z,10.80
2023-03-22T10:56:07.868Z,10.88
2023-03-22T10:58:36.250Z,10.89
2023-03-22T11:01:10.004Z,10.91
2023-03-22T11:03:42.804Z,10.91
2023-03-22T11:06:14.519Z,10.88
2023-03-22T11:08:50.233Z,10.87
2023-03-22T11:11:25.275Z,10.85
2023-03-22T11:14:00.525Z,10.83
2023-03-22T11:16:57.270Z,10.84
2023-03-22T11:19:30.492Z,10.87
2023-03-22T11:21:59.803Z,10.93
2023-03-22T11:24:29.556Z,10.97
2023-03-22T11:27:09.223Z,10.99
2023-03-22T11:29:46.287Z,10.99
2023-03-22T11:32:27.562Z,10.99
2023-03-22T11:35:03.418Z,10.97
2023-03-22T11:37:30.946Z,10.97
2023-03-22T11:40:05.027Z,11.00
2023-03-22T11:42:35.242Z,11.03
2023-03-22T11:45:03.201Z,11.03
2023-03-22T11:47:35.741Z,11.03
2023-03-22T11:50:09.537Z,11.08
2023-03-22T11:52:38.050Z,11.14
2023-03-22T11:55:06.904Z,11.18
2023-03-22T11:57:35.933Z,11.26
2023-03-22T12:00:11.838Z,11.35
2023-03-22T12:02:47.712Z,11.45
2023-03-22T12:05:23.478Z,11.57
2023-03-22T12:07:56.101Z,11.67
2023-03-22T12:10:39.413Z,11.79
2023-03-22T12:13:15.974Z,11.83
2023-03-22T12:15:49.072Z,11.81
2023-03-22T12:18:20.980Z,11.79
2023-03-22T12:20:55.345Z,11.77
2023-03-22T12:23:24.854Z,11.77
2023-03-22T12:25:57.022Z,11.79
2023-03-22T12:28:29.602Z,11.82
2023-03-22T12:30:59.988Z,11.81
2023-03-22T12:33:31.393Z,11.79
2023-03-22T12:36:03.464Z,11.80
2023-03-22T12:38:39.327Z,11.84
2023-03-22T12:41:12.072Z,11.87
2023-03-22T12:43:48.066Z,11.91
2023-03-22T12:46:21.879Z,12.00
2023-03-22T12:48:56.336Z,12.15
2023-03-22T12:51:23.923Z,12.30
2023-03-22T12:53:54.672Z,12.49
2023-03-22T12:56:26.380Z,12.68
2023-03-22T12:58:58.172Z,12.77
2023-03-22T13:01:33.637Z,12.82
2023-03-22T13:04:01.193Z,12.86
2023-03-22T13:06:59.103Z,12.89
2023-03-22T13:09:40.608Z,12.97
2023-03-22T13:12:35.578Z,13.03
2023-03-22T13:15:31.570Z,13.18
2023-03-22T13:18:06.705Z,13.39
2023-03-22T13:20:38.540Z,13.48
2023-03-22T13:23:27.176Z,13.57
2023-03-22T13:26:06.822Z,13.58
2023-03-22T13:28:38.356Z,13.55
2023-03-22T13:31:06.963Z,13.47
2023-03-22T13:33:36.079Z,13.37
2023-03-22T13:36:08.759Z,13.25
2023-03-22T13:38:39.729Z,13.13
2023-03-22T13:41:16.038Z,13.06
2023-03-22T13:43:51.158Z,12.95
2023-03-22T13:46:45.212Z,12.85
2023-03-22T13:49:41.686Z,12.79
2023-03-22T13:52:11.588Z,12.74
2023-03-22T13:54:43.817Z,12.68
2023-03-22T13:57:39.378Z,12.64
2023-03-22T14:00:20.944Z,12.60
2023-03-22T14:02:51.563Z,12.60
2023-03-22T14:05:23.072Z,12.61
2023-03-22T14:07:54.573Z,12.61
2023-03-22T14:10:25.678Z,12.61
2023-03-22T14:12:56.949Z,12.60
2023-03-22T14:15:27.720Z,12.59
2023-03-22T14:18:01.474Z,12.60
2023-03-22T14:20:33.053Z,12.58
